Don's Testing Zone


Current Conditions
weather data
source:

National Weather Service
Clear Little Rock, AR
Clear, 54°F
Sunday, December 10, 2017 5:53 PM CST
Temperature: 54°F/12°C
Humidity: 38%
Barometer: 30.18in/1022.4mb Barometer Steady
Wind: W at 77mph/124kmh
Wind Advisory
View other cities:
Searcy | Little Rock | Hot Springs | Russellville | More...
Astronomical Conditions (Clear Sky Clock)
Searcy Clear Sky Clock
    

Radar Images

NWS
    Wx Underground

NWS METAR weather data

ADDS - METARS form results





Aviation Digital Data Service (ADDS) Output produced by METARs form (0013 UTC 11 December 2017) found at http://www.aviationweather.gov/adds/metars/ 

KLIT 102353Z 22007KT 10SM CLR 12/M02 A3018 RMK AO2 SLP224 T01221022 10167 2012253004

KLIT 102253Z 21008KT 10SM CLR 13/M02 A3017 RMK AO2 SLP221 T01331022

KLIT 102153Z 22010KT 10SM FEW250 16/M02 A3017 RMK AO2 SLP218 T01611022

KLIT 102053Z 23010KT 10SM FEW250 16/M02 A3017 RMK AO2 SLP220 T01611022 56028

KLIT 101953Z 22011KT 10SM FEW250 16/M03 A3018 RMK AO2 SLP223 T01561028

KLIT 101853Z 24012KT 10SM CLR 15/M03 A3021 RMK AO2 SLP233 T01501033

KLIT 101753Z 24012G19KT 10SM CLR 13/M03 A3026 RMK AO2 SLP249 T01281033 1013321033 58025

KLIT 101653Z 22012KT 10SM CLR 11/M04 A3029 RMK AO2 SLP262 T01111044

KLIT 101553Z 24009KT 10SM CLR 07/M03 A3031 RMK AO2 SLP268 T00671033

KLIT 101453Z 25006KT 10SM CLR 03/M03 A3033 RMK AO2 SLP274 T00281033 53002

KLIT 101353Z 24006KT 10SM CLR 00/M04 A3031 RMK AO2 SLP270 T00001039

KLIT 101253Z 24007KT 10SM CLR M02/M05 A3032 RMK AO2 SLP273 T10221050

KLIT 101153Z 25005KT 10SM CLR M03/M05 A3032 RMK AO2 SLP273 T10281050 10006 2103355000

KLIT 101053Z 23003KT 10SM CLR M03/M05 A3031 RMK AO2 SLP270 T10281050

KLIT 100953Z 24005KT 10SM CLR M02/M05 A3032 RMK AO2 SLP272 T10221050

KLIT 100853Z 24006KT 10SM CLR M02/M05 A3032 RMK AO2 SLP272 T10221050 51009

KLIT 100753Z 23003KT 10SM CLR M01/M04 A3031 RMK AO2 SLP268 T10061044

KLIT 100653Z 26004KT 10SM CLR M01/M05 A3031 RMK AO2 SLP267 T10061050

KLIT 100553Z 26004KT 10SM CLR M01/M05 A3030 RMK AO2 SLP263 T10061050 10078 21006401171044 50008

KLIT 100453Z 00000KT 10SM CLR 01/M05 A3030 RMK AO2 SLP264 T00111050

KLIT 100353Z 33006KT 10SM CLR 03/M06 A3029 RMK AO2 SLP260 T00331056

KLIT 100253Z 32005KT 10SM CLR 05/M06 A3027 RMK AO2 SLP256 T00501061 53022

KLIT 100153Z 30007KT 10SM CLR 05/M07 A3025 RMK AO2 SLP247 T00501067

KLIT 100053Z 30007KT 10SM CLR 07/M07 A3023 RMK AO2 SLP240 T00721067